Leandro N. Alem, Argentina
Current Conditions -  °F | °C
As of 10:00 AM on Friday 24 Oct 2014 (Local Time) from SARP Reporting Station
Clear Clear  
Wind Chill: 84°   Ceiling: Unl
Heat Index: 85°   Visibility: 6mi
Dew Point: 63°   Wind: 5mph
Humidity: 48%   Direction: 50°NE
Pressure: 29.97"   Gusts: NA
Location:  27.6°S, 55.32°W
Report Text: SARP 241300Z 05004KT CAVOK 29/17 Q1015
Loading
Personal Weather Stations






























Interactive Weather Map
Tropical Storm Tracking
New forecast layout! Learn more

10-Day Weather Forecast

Advertisements
Track Severe Weather on mobile